createdAt,value
2018-06-04T00:02:25.379Z,4.70
2018-06-04T00:04:54.080Z,4.60
2018-06-04T00:07:22.824Z,5.60
2018-06-04T00:09:51.451Z,4.80
2018-06-04T00:12:20.139Z,5.07
2018-06-04T00:14:48.822Z,4.80
2018-06-04T00:17:17.363Z,5.10
2018-06-04T00:19:45.988Z,4.83
2018-06-04T00:22:14.643Z,4.80
2018-06-04T00:24:43.255Z,5.17
2018-06-04T00:27:11.880Z,4.97
2018-06-04T00:29:40.442Z,4.93
2018-06-04T00:32:09.114Z,5.17
2018-06-04T00:34:37.687Z,5.00
2018-06-04T00:37:06.295Z,5.57
2018-06-04T00:39:34.956Z,5.03
2018-06-04T00:42:03.668Z,5.20
2018-06-04T00:44:32.239Z,5.37
2018-06-04T00:47:00.908Z,4.53
2018-06-04T00:49:29.528Z,5.10
2018-06-04T00:51:58.176Z,5.40
2018-06-04T00:54:26.863Z,5.37
2018-06-04T00:56:55.569Z,5.00
2018-06-04T00:59:24.232Z,5.83
2018-06-04T01:01:53.021Z,5.03
2018-06-04T01:04:21.682Z,5.53
2018-06-04T01:06:50.291Z,5.17
2018-06-04T01:09:18.787Z,6.00
2018-06-04T01:11:47.267Z,4.70
2018-06-04T01:14:15.936Z,5.13
2018-06-04T01:16:44.518Z,5.67
2018-06-04T01:19:13.119Z,6.20
2018-06-04T01:21:41.729Z,6.17
2018-06-04T01:24:10.266Z,5.73
2018-06-04T01:26:38.893Z,5.90
2018-06-04T01:29:07.431Z,5.40
2018-06-04T01:31:36.060Z,5.00
2018-06-04T01:34:04.611Z,5.40
2018-06-04T01:36:33.181Z,6.67
2018-06-04T01:39:01.708Z,5.20
2018-06-04T01:41:30.265Z,5.93
2018-06-04T01:43:58.975Z,5.70
2018-06-04T01:46:27.615Z,5.87
2018-06-04T01:48:56.420Z,5.13
2018-06-04T01:51:25.499Z,5.87
2018-06-04T01:53:54.183Z,5.73
2018-06-04T01:56:22.718Z,6.10
2018-06-04T01:58:51.963Z,6.33
2018-06-04T02:01:20.651Z,6.17
2018-06-04T02:03:49.170Z,6.10
2018-06-04T02:06:17.775Z,5.33
2018-06-04T02:08:46.397Z,6.20
2018-06-04T02:11:15.594Z,5.80
2018-06-04T02:13:44.177Z,6.17
2018-06-04T02:16:12.806Z,5.63
2018-06-04T02:18:41.431Z,5.63
2018-06-04T02:21:10.031Z,5.57
2018-06-04T02:23:38.614Z,5.20
2018-06-04T02:26:07.197Z,6.27
2018-06-04T02:28:35.863Z,6.07
2018-06-04T02:31:04.463Z,5.90
2018-06-04T02:33:33.250Z,6.17
2018-06-04T02:36:01.786Z,5.50
2018-06-04T02:38:30.313Z,5.30
2018-06-04T02:40:58.926Z,5.67
2018-06-04T02:43:27.584Z,5.83
2018-06-04T02:45:56.272Z,5.97
2018-06-04T02:48:25.364Z,5.57
2018-06-04T02:50:54.307Z,5.70
2018-06-04T02:53:23.011Z,5.73
2018-06-04T02:55:51.885Z,5.10
2018-06-04T02:58:20.979Z,5.50
2018-06-04T03:00:49.610Z,6.00
2018-06-04T03:03:18.240Z,6.13
2018-06-04T03:05:46.798Z,5.13
2018-06-04T03:08:15.314Z,6.17
2018-06-04T03:10:44.339Z,5.63
2018-06-04T03:13:12.818Z,5.93
2018-06-04T03:15:41.339Z,5.50
2018-06-04T03:18:09.995Z,5.60
2018-06-04T03:20:38.619Z,5.33
2018-06-04T03:23:07.211Z,5.83
2018-06-04T03:25:35.761Z,5.37
2018-06-04T03:28:04.303Z,5.53
2018-06-04T03:30:32.923Z,5.00
2018-06-04T03:33:02.311Z,5.57
2018-06-04T03:35:30.807Z,5.27
2018-06-04T03:37:59.284Z,5.60
2018-06-04T03:40:27.790Z,5.53
2018-06-04T03:42:56.439Z,5.47
2018-06-04T03:45:25.225Z,4.70
2018-06-04T03:47:55.088Z,5.07
2018-06-04T03:50:23.727Z,5.80
2018-06-04T03:52:52.315Z,5.20
2018-06-04T03:55:20.910Z,4.50
2018-06-04T03:57:49.433Z,4.23
2018-06-04T04:00:18.155Z,4.30
2018-06-04T04:02:46.654Z,4.60
2018-06-04T04:05:15.219Z,4.80
2018-06-04T04:07:43.859Z,4.80
2018-06-04T04:10:12.486Z,4.53
2018-06-04T04:12:41.275Z,4.37
2018-06-04T04:15:09.960Z,4.30
2018-06-04T04:17:38.646Z,4.27
2018-06-04T04:20:07.228Z,3.83
2018-06-04T04:22:35.801Z,3.87
2018-06-04T04:25:04.555Z,4.40
2018-06-04T04:27:33.623Z,4.50
2018-06-04T04:30:02.276Z,4.20
2018-06-04T04:32:30.963Z,5.13
2018-06-04T04:34:59.446Z,4.50
2018-06-04T04:37:28.032Z,4.00
2018-06-04T04:39:56.713Z,4.03
2018-06-04T04:42:25.399Z,4.27
2018-06-04T04:44:54.048Z,3.73
2018-06-04T04:47:22.729Z,3.77
2018-06-04T04:49:51.247Z,3.80
2018-06-04T04:52:19.847Z,3.90
2018-06-04T04:54:48.434Z,3.80
2018-06-04T04:57:17.202Z,3.57
2018-06-04T04:59:45.799Z,4.87
2018-06-04T05:02:14.382Z,4.47
2018-06-04T05:04:42.963Z,4.03
2018-06-04T05:07:11.566Z,3.73
2018-06-04T05:09:40.130Z,3.63
2018-06-04T05:12:08.758Z,4.50
2018-06-04T05:14:37.430Z,4.03
2018-06-04T05:17:06.124Z,4.00
2018-06-04T05:19:34.755Z,4.07
2018-06-04T05:22:03.338Z,4.27
2018-06-04T05:24:31.951Z,4.33
2018-06-04T05:27:00.523Z,4.70
2018-06-04T05:29:29.192Z,4.30
2018-06-04T05:31:57.819Z,4.17
2018-06-04T05:34:26.457Z,3.73
2018-06-04T05:36:55.084Z,4.23
2018-06-04T05:39:23.660Z,5.03
2018-06-04T05:42:04.270Z,4.63
2018-06-04T05:44:36.168Z,4.70
2018-06-04T05:47:04.833Z,4.60
2018-06-04T05:49:33.331Z,4.37
2018-06-04T05:52:01.999Z,5.17
2018-06-04T05:54:30.607Z,5.10
2018-06-04T05:56:59.819Z,5.13
2018-06-04T05:59:28.467Z,4.93
2018-06-04T06:01:57.075Z,5.63
2018-06-04T06:04:25.675Z,5.97
2018-06-04T06:06:54.317Z,6.03
2018-06-04T06:09:22.925Z,6.53
2018-06-04T06:11:51.486Z,6.47
2018-06-04T06:14:20.014Z,7.10
2018-06-04T06:16:48.567Z,7.23
2018-06-04T06:19:17.136Z,7.90
2018-06-04T06:21:45.729Z,8.03
2018-06-04T06:24:14.347Z,8.10
2018-06-04T06:26:42.858Z,9.53
2018-06-04T06:29:11.464Z,8.13
2018-06-04T06:31:40.823Z,8.77
2018-06-04T06:34:09.445Z,8.20
2018-06-04T06:36:38.174Z,8.83
2018-06-04T06:39:09.359Z,8.40
2018-06-04T06:41:38.387Z,8.60
2018-06-04T06:44:07.102Z,8.80
2018-06-04T06:46:36.587Z,8.53
2018-06-04T06:49:06.299Z,9.33
2018-06-04T06:51:35.511Z,8.57
2018-06-04T06:54:04.355Z,8.17
2018-06-04T06:56:33.142Z,8.70
2018-06-04T06:59:01.798Z,8.17
2018-06-04T07:01:30.455Z,7.93
2018-06-04T07:03:59.186Z,7.87
2018-06-04T07:06:28.284Z,8.23
2018-06-04T07:08:56.976Z,7.70
2018-06-04T07:11:25.504Z,7.40
2018-06-04T07:13:54.055Z,8.05
2018-06-04T07:16:22.648Z,8.10
2018-06-04T07:18:51.307Z,8.00
2018-06-04T07:21:19.919Z,7.43
2018-06-04T07:23:48.518Z,7.40
2018-06-04T07:26:17.511Z,7.30
2018-06-04T07:28:46.078Z,8.05
2018-06-04T07:31:14.989Z,7.87
2018-06-04T07:33:43.624Z,7.55
2018-06-04T07:36:12.562Z,7.12
2018-06-04T07:38:41.746Z,7.97
2018-06-04T07:41:10.322Z,7.47
2018-06-04T07:43:38.981Z,7.50
2018-06-04T07:46:07.492Z,8.03
2018-06-04T07:48:36.069Z,7.22
2018-06-04T07:51:04.689Z,7.10
2018-06-04T07:53:33.375Z,7.10
2018-06-04T07:56:01.943Z,7.20
2018-06-04T07:58:30.580Z,6.75
2018-06-04T08:00:59.178Z,7.55
2018-06-04T08:03:27.807Z,7.53
2018-06-04T08:05:56.695Z,7.12
2018-06-04T08:08:25.427Z,7.03
2018-06-04T08:10:54.030Z,7.50
2018-06-04T08:13:22.642Z,6.78
2018-06-04T08:15:51.274Z,6.95
2018-06-04T08:18:20.666Z,6.85
2018-06-04T08:20:49.259Z,6.80
2018-06-04T08:23:17.842Z,7.55
2018-06-04T08:25:46.822Z,7.90
2018-06-04T08:28:15.919Z,7.03
2018-06-04T08:30:44.525Z,6.80
2018-06-04T08:33:13.198Z,6.92
2018-06-04T08:35:41.825Z,6.65
2018-06-04T08:38:10.466Z,7.58
2018-06-04T08:40:39.179Z,6.58
2018-06-04T08:43:07.867Z,6.53
2018-06-04T08:45:36.558Z,7.67
2018-06-04T08:48:05.211Z,6.37
2018-06-04T08:50:33.823Z,7.35
2018-06-04T08:53:02.364Z,7.17
2018-06-04T08:55:30.961Z,7.37
2018-06-04T08:57:59.501Z,7.25
2018-06-04T09:00:28.119Z,6.80
2018-06-04T09:02:57.321Z,6.22
2018-06-04T09:05:26.484Z,6.67
2018-06-04T09:07:55.158Z,6.80
2018-06-04T09:10:23.768Z,6.42
2018-06-04T09:12:52.287Z,7.08
2018-06-04T09:15:20.797Z,6.35
2018-06-04T09:17:49.440Z,6.55
2018-06-04T09:20:17.954Z,6.67
2018-06-04T09:22:46.535Z,6.70
2018-06-04T09:25:15.132Z,6.40
2018-06-04T09:27:43.767Z,6.40
2018-06-04T09:30:12.447Z,6.80
2018-06-04T09:32:41.120Z,5.97
2018-06-04T09:35:09.615Z,6.87
2018-06-04T09:37:38.243Z,6.62
2018-06-04T09:40:06.897Z,5.85
2018-06-04T09:42:35.406Z,6.00
2018-06-04T09:45:03.991Z,6.25
2018-06-04T09:47:32.508Z,6.40
2018-06-04T09:50:01.110Z,6.55
2018-06-04T09:52:29.692Z,6.72
2018-06-04T09:54:58.276Z,6.10
2018-06-04T09:57:26.859Z,6.55
2018-06-04T09:59:56.377Z,6.08
2018-06-04T10:02:25.099Z,6.20
2018-06-04T10:04:53.687Z,6.05
2018-06-04T10:07:22.317Z,5.85
2018-06-04T10:09:51.004Z,6.10
2018-06-04T10:12:19.523Z,6.17
2018-06-04T10:14:48.373Z,7.22
2018-06-04T10:17:16.870Z,6.10
2018-06-04T10:19:46.256Z,5.97
2018-06-04T10:22:15.811Z,6.15
2018-06-04T10:24:44.853Z,5.78
2018-06-04T10:27:13.459Z,6.28
2018-06-04T10:29:42.123Z,5.95
2018-06-04T10:32:10.808Z,6.45
2018-06-04T10:34:40.289Z,5.37
2018-06-04T10:37:08.882Z,6.37
2018-06-04T10:39:37.399Z,6.53
2018-06-04T10:42:06.062Z,6.87
2018-06-04T10:44:34.682Z,6.42
2018-06-04T10:47:03.336Z,6.72
2018-06-04T10:49:31.919Z,6.40
2018-06-04T10:52:00.387Z,5.75
2018-06-04T10:54:28.975Z,5.53
2018-06-04T10:56:57.699Z,5.37
2018-06-04T10:59:26.285Z,6.10
2018-06-04T11:01:54.876Z,5.90
2018-06-04T11:04:23.450Z,6.17
2018-06-04T11:06:52.082Z,5.65
2018-06-04T11:09:20.680Z,6.22
2018-06-04T11:11:49.198Z,5.60
2018-06-04T11:14:17.843Z,6.33
2018-06-04T11:16:46.627Z,6.20
2018-06-04T11:19:15.214Z,6.58
2018-06-04T11:21:43.903Z,6.58
2018-06-04T11:24:12.724Z,6.10
2018-06-04T11:26:41.326Z,6.15
2018-06-04T11:29:09.995Z,6.20
2018-06-04T11:31:38.637Z,6.97
2018-06-04T11:34:07.326Z,6.12
2018-06-04T11:36:35.954Z,6.17
2018-06-04T11:39:06.335Z,6.80
2018-06-04T11:41:35.030Z,6.62
2018-06-04T11:44:03.752Z,6.28
2018-06-04T11:46:32.391Z,7.30
2018-06-04T11:49:00.974Z,6.58
2018-06-04T11:51:29.467Z,6.72
2018-06-04T11:53:58.138Z,7.25
2018-06-04T11:56:26.666Z,7.05
2018-06-04T11:58:55.305Z,6.67
2018-06-04T12:01:23.888Z,7.25
2018-06-04T12:03:52.675Z,6.70
2018-06-04T12:06:21.287Z,7.03
2018-06-04T12:08:50.254Z,6.35
2018-06-04T12:11:18.854Z,7.05
2018-06-04T12:13:47.565Z,6.67
2018-06-04T12:16:16.311Z,6.90
2018-06-04T12:18:47.042Z,6.75
2018-06-04T12:21:15.586Z,6.70
2018-06-04T12:23:44.207Z,6.58
2018-06-04T12:26:12.811Z,6.80
2018-06-04T12:28:41.475Z,6.70
2018-06-04T12:31:10.010Z,6.65
2018-06-04T12:33:38.497Z,6.30
2018-06-04T12:36:07.166Z,6.42
2018-06-04T12:38:35.791Z,6.95
2018-06-04T12:41:04.491Z,6.42
2018-06-04T12:43:33.177Z,7.25
2018-06-04T12:46:01.918Z,6.45
2018-06-04T12:48:30.548Z,6.15
2018-06-04T12:50:59.131Z,6.90
2018-06-04T12:53:27.658Z,6.75
2018-06-04T12:55:56.210Z,6.25
2018-06-04T12:58:24.778Z,7.33
2018-06-04T13:00:53.567Z,6.83
2018-06-04T13:03:22.148Z,6.20
2018-06-04T13:05:50.670Z,5.72
2018-06-04T13:08:19.246Z,5.92
2018-06-04T13:10:47.774Z,6.10
2018-06-04T13:13:16.378Z,6.33
2018-06-04T13:15:45.066Z,5.37
2018-06-04T13:18:13.555Z,5.55
2018-06-04T13:20:42.229Z,5.05
2018-06-04T13:23:13.269Z,4.85
2018-06-04T13:25:41.954Z,5.22
2018-06-04T13:28:10.584Z,4.58
2018-06-04T13:30:39.278Z,4.75
2018-06-04T13:33:07.906Z,4.20
2018-06-04T13:35:36.579Z,4.60
2018-06-04T13:38:05.154Z,4.45
2018-06-04T13:40:33.758Z,4.45
2018-06-04T13:43:02.441Z,4.78
2018-06-04T13:45:36.116Z,4.55
2018-06-04T13:48:04.709Z,4.42
2018-06-04T13:50:33.316Z,4.42
2018-06-04T13:53:02.058Z,4.37
2018-06-04T13:55:30.688Z,3.85
2018-06-04T13:57:59.354Z,3.90
2018-06-04T14:00:29.590Z,3.60
2018-06-04T14:02:58.171Z,3.40
2018-06-04T14:05:26.857Z,3.33
2018-06-04T14:07:55.545Z,3.33
2018-06-04T14:10:24.204Z,4.03
2018-06-04T14:12:52.811Z,3.95
2018-06-04T14:15:21.393Z,4.12
2018-06-04T14:17:50.027Z,3.90
2018-06-04T14:20:19.377Z,3.30
2018-06-04T14:22:48.063Z,3.42
2018-06-04T14:25:16.594Z,3.80
2018-06-04T14:27:45.186Z,3.60
2018-06-04T14:30:13.755Z,3.58
2018-06-04T14:32:42.395Z,10.25
2018-06-04T14:35:10.977Z,3.40
2018-06-04T14:37:39.602Z,3.20
2018-06-04T14:40:08.246Z,3.10
2018-06-04T14:42:36.862Z,3.10
2018-06-04T14:45:05.686Z,3.10
2018-06-04T14:47:34.292Z,3.00
2018-06-04T14:50:03.300Z,2.72
2018-06-04T14:52:32.392Z,2.77
2018-06-04T14:55:00.910Z,2.92
2018-06-04T14:57:29.622Z,2.42
2018-06-04T14:59:58.240Z,2.45
2018-06-04T15:02:26.762Z,2.45
2018-06-04T15:04:55.390Z,2.55
2018-06-04T15:07:23.989Z,2.12
2018-06-04T15:09:52.512Z,2.47
2018-06-04T15:12:21.713Z,16.37
2018-06-04T15:14:50.352Z,6.90
2018-06-04T15:17:18.935Z,2.17
2018-06-04T15:19:47.582Z,2.05
2018-06-04T15:22:16.203Z,2.17
2018-06-04T15:24:44.785Z,1.90
2018-06-04T15:27:13.462Z,2.20
2018-06-04T15:29:42.100Z,1.90
2018-06-04T15:32:10.795Z,1.77
2018-06-04T15:34:39.424Z,1.98
2018-06-04T15:37:08.043Z,1.62
2018-06-04T15:39:36.591Z,1.60
2018-06-04T15:42:05.174Z,1.75
2018-06-04T15:44:33.655Z,1.80
2018-06-04T15:47:02.341Z,1.70
2018-06-04T15:49:31.126Z,1.80
2018-06-04T15:51:59.754Z,1.80
2018-06-04T15:54:28.318Z,1.72
2018-06-04T15:57:00.152Z,2.12
2018-06-04T15:59:29.400Z,1.72
2018-06-04T16:01:58.035Z,1.60
2018-06-04T16:04:26.678Z,1.90
2018-06-04T16:06:55.302Z,1.60
2018-06-04T16:09:23.790Z,1.60
2018-06-04T16:11:52.468Z,1.70
2018-06-04T16:14:20.993Z,1.45
2018-06-04T16:16:49.634Z,1.70
2018-06-04T16:19:19.138Z,1.72
2018-06-04T16:21:47.721Z,1.77
2018-06-04T16:24:16.380Z,1.45
2018-06-04T16:26:45.001Z,1.37
2018-06-04T16:29:13.680Z,1.62
2018-06-04T16:31:42.362Z,1.85
2018-06-04T16:34:10.942Z,1.50
2018-06-04T16:36:39.574Z,1.55
2018-06-04T16:39:09.806Z,1.65
2018-06-04T16:41:38.690Z,1.40
2018-06-04T16:44:07.425Z,1.30
2018-06-04T16:46:36.670Z,1.45
2018-06-04T16:49:05.411Z,1.45
2018-06-04T16:51:34.699Z,1.62
2018-06-04T16:54:03.307Z,1.70
2018-06-04T16:56:31.891Z,1.40
2018-06-04T16:59:02.603Z,1.27
2018-06-04T17:01:31.194Z,1.42
2018-06-04T17:03:59.702Z,1.30
2018-06-04T17:06:28.358Z,1.45
2018-06-04T17:08:57.404Z,1.60
2018-06-04T17:11:26.095Z,2.37
2018-06-04T17:13:54.706Z,1.52
2018-06-04T17:16:23.419Z,1.40
2018-06-04T17:18:52.604Z,1.40
2018-06-04T17:21:21.391Z,1.72
2018-06-04T17:23:50.284Z,1.45
2018-06-04T17:26:18.887Z,1.85
2018-06-04T17:28:47.474Z,1.60
2018-06-04T17:31:16.196Z,1.50
2018-06-04T17:33:44.919Z,1.60
2018-06-04T17:36:13.712Z,1.50
2018-06-04T17:38:42.334Z,1.10
2018-06-04T17:41:10.977Z,1.40
2018-06-04T17:43:39.559Z,1.40
2018-06-04T17:46:08.084Z,1.30
2018-06-04T17:48:36.654Z,1.27
2018-06-04T17:51:05.227Z,1.57
2018-06-04T17:53:33.928Z,1.02
2018-06-04T17:56:02.575Z,1.30
2018-06-04T17:58:31.202Z,1.30
2018-06-04T18:00:59.784Z,1.00
2018-06-04T18:03:28.429Z,1.37
2018-06-04T18:05:57.055Z,0.90
2018-06-04T18:08:25.730Z,1.42
2018-06-04T18:10:54.466Z,0.95
2018-06-04T18:13:23.695Z,1.30
2018-06-04T18:15:52.310Z,7.62
2018-06-04T18:18:21.818Z,1.20
2018-06-04T18:20:50.454Z,1.10
2018-06-04T18:23:19.006Z,1.10
2018-06-04T18:25:47.594Z,0.78
2018-06-04T18:28:17.124Z,0.95
2018-06-04T18:33:06.507Z,0.90
2018-06-04T18:35:35.193Z,0.90
2018-06-04T18:38:03.826Z,0.88
2018-06-04T18:40:32.378Z,0.75
2018-06-04T18:43:00.942Z,0.88
2018-06-04T18:45:29.754Z,0.80
2018-06-04T18:47:58.365Z,0.90
2018-06-04T18:50:27.303Z,0.80
2018-06-04T18:52:55.791Z,1.00
2018-06-04T18:55:24.360Z,0.88
2018-06-04T18:57:53.056Z,2.50
2018-06-04T19:00:21.652Z,4.58
2018-06-04T19:02:50.319Z,2.22
2018-06-04T19:05:18.947Z,1.27
2018-06-04T19:07:47.590Z,0.80
2018-06-04T19:10:16.231Z,1.00
2018-06-04T19:12:44.771Z,1.00
2018-06-04T19:15:13.952Z,0.90
2018-06-04T19:17:42.638Z,0.88
2018-06-04T19:20:11.151Z,0.80
2018-06-04T19:22:39.849Z,1.00
2018-06-04T19:25:08.489Z,0.90
2018-06-04T19:27:37.172Z,0.80
2018-06-04T19:30:06.102Z,0.90
2018-06-04T19:32:34.748Z,0.80
2018-06-04T19:35:04.099Z,0.88
2018-06-04T19:37:33.961Z,0.90
2018-06-04T19:40:02.478Z,0.90
2018-06-04T19:42:31.127Z,0.80
2018-06-04T19:44:59.623Z,0.80
2018-06-04T19:47:28.110Z,1.90
2018-06-04T19:49:56.779Z,3.73
2018-06-04T19:52:25.458Z,0.80
2018-06-04T19:54:53.986Z,0.90
2018-06-04T19:57:22.677Z,1.13
2018-06-04T19:59:51.924Z,1.10
2018-06-04T20:02:21.746Z,1.00
2018-06-04T20:04:50.470Z,0.90
2018-06-04T20:07:19.047Z,0.80
2018-06-04T20:09:47.792Z,1.00
2018-06-04T20:12:16.377Z,0.70
2018-06-04T20:14:45.061Z,0.90
2018-06-04T20:17:14.668Z,0.73
2018-06-04T20:19:43.455Z,0.90
2018-06-04T20:22:12.137Z,1.03
2018-06-04T20:24:40.798Z,0.73
2018-06-04T20:27:09.584Z,0.80
2018-06-04T20:29:38.182Z,0.80
2018-06-04T20:32:06.808Z,0.80
2018-06-04T20:34:35.467Z,0.90
2018-06-04T20:37:04.064Z,1.10
2018-06-04T20:39:32.726Z,1.03
2018-06-04T20:42:01.317Z,0.87
2018-06-04T20:44:30.003Z,0.80
2018-06-04T20:46:58.689Z,0.60
2018-06-04T20:49:27.282Z,0.90
2018-06-04T20:51:55.803Z,0.87
2018-06-04T20:54:24.385Z,0.70
2018-06-04T20:56:53.021Z,0.80
2018-06-04T20:59:21.706Z,0.70
2018-06-04T21:01:51.010Z,0.73
2018-06-04T21:04:19.791Z,0.60
2018-06-04T21:06:48.476Z,0.70
2018-06-04T21:09:17.166Z,0.73
2018-06-04T21:11:45.777Z,0.70
2018-06-04T21:14:14.346Z,0.73
2018-06-04T21:16:43.017Z,0.80
2018-06-04T21:19:11.701Z,0.70
2018-06-04T21:21:40.298Z,0.60
2018-06-04T21:24:08.971Z,0.60
2018-06-04T21:26:37.652Z,2.67
2018-06-04T21:29:06.159Z,14.80
2018-06-04T21:31:34.714Z,1.30
2018-06-04T21:34:03.303Z,0.50
2018-06-04T21:36:31.794Z,0.60
2018-06-04T21:39:00.463Z,0.53
2018-06-04T21:41:28.985Z,0.53
2018-06-04T21:43:57.632Z,0.53
2018-06-04T21:46:26.670Z,0.63
2018-06-04T21:48:55.163Z,0.50
2018-06-04T21:51:23.791Z,0.70
2018-06-04T21:53:52.383Z,0.60
2018-06-04T21:56:21.363Z,0.63
2018-06-04T21:58:49.954Z,0.60
2018-06-04T22:01:18.474Z,0.50
2018-06-04T22:03:47.110Z,0.50
2018-06-04T22:06:15.648Z,0.53
2018-06-04T22:08:44.202Z,0.50
2018-06-04T22:11:12.798Z,0.60
2018-06-04T22:13:41.323Z,0.50
2018-06-04T22:16:09.863Z,0.33
2018-06-04T22:18:38.359Z,0.40
2018-06-04T22:21:06.986Z,0.40
2018-06-04T22:23:35.569Z,0.40
2018-06-04T22:26:04.116Z,0.50
2018-06-04T22:28:32.735Z,0.60
2018-06-04T22:31:01.343Z,0.50
2018-06-04T22:33:29.843Z,0.50
2018-06-04T22:35:58.414Z,0.37
2018-06-04T22:38:27.006Z,0.50
2018-06-04T22:40:55.650Z,0.40
2018-06-04T22:43:24.419Z,0.30
2018-06-04T22:45:52.918Z,0.50
2018-06-04T22:48:22.275Z,0.47
2018-06-04T22:50:50.826Z,0.40
2018-06-04T22:53:19.381Z,0.70
2018-06-04T22:55:47.871Z,0.50
2018-06-04T22:58:16.491Z,0.40
2018-06-04T23:00:45.028Z,0.40
2018-06-04T23:03:13.713Z,0.50
2018-06-04T23:05:42.246Z,0.40
2018-06-04T23:08:10.879Z,0.50
2018-06-04T23:10:39.410Z,0.30
2018-06-04T23:13:07.941Z,0.60
2018-06-04T23:15:36.629Z,0.57
2018-06-04T23:18:05.463Z,0.43
2018-06-04T23:20:34.101Z,0.50
2018-06-04T23:23:02.777Z,2.17
2018-06-04T23:25:31.369Z,1.77
2018-06-04T23:28:00.056Z,0.50
2018-06-04T23:30:28.638Z,0.50
2018-06-04T23:32:57.322Z,0.50
2018-06-04T23:35:25.962Z,0.40
2018-06-04T23:37:54.525Z,0.40
2018-06-04T23:40:23.140Z,0.60
2018-06-04T23:42:51.757Z,0.33
2018-06-04T23:45:20.441Z,0.30
2018-06-04T23:47:49.051Z,0.43
2018-06-04T23:50:18.528Z,0.50
2018-06-04T23:52:47.215Z,0.30
2018-06-04T23:55:15.850Z,0.40
2018-06-04T23:57:44.394Z,0.40
